الصفحة الرئيسية
METAR-TAF:

METAR-TAF

مطار :

مطار جناح الدولي

كراتشي, باكستان

دائرة عرض: 24-54N, خط طول: 067-08E, ارتفاع: 21 متر

مراقبة الطقس الحالي

تاريخ ووقت الإصدار 34 دقيقة قبل الساعة 05:55UTC
درجة الحرارة 32°درجة مئوية
الرطوبة 59%
ضغط 998 hPa
الرؤية: 5000 متر
غيوم متفرقة على ارتفاع 3000 قدم
غيوم مفككة على ارتفاع 10000 قدم
دخان

METAR: OPKC 160555Z 24007T 5000 FU SCT030 BKN100 32/23 Q0998 NOSIG

زمن: 11:29 (06:29 UTC)

توقعات

تاريخ ووقت الإصدار 2ساعات و 59 دقيقة قبل الساعة 03:30UTC
التوقعات صالحة من16 الساعة 06 UTC إلى 16 الساعة 15 UTC
ريح 5 عقدة من الجنوب الغربي تتزايد حتى 15 عقدة
الرؤية: 6000 متر
غيوم مفككة على ارتفاع 2500 قدم

TAF: OPKC 160330Z 1606/1615 23005G15KT 6000 BKN025

أرصاد الطقس والتوقعات من أكثر من 4000 مطار (تقارير الطقس للمطار METAR والتنبؤ بالطقس بالمطارTAF).

المحطات المتاحة هي النقط الصفراء والحمراء على الخريطة.

حرك المؤشر فوق النقطة لمعرفة اسم المحطة.

ثم انقر لمعرفة أرصاد وتوقعات الطقس.

لتغيير الخارطة: اضغط على الأزرار الخضراء مع رمز الصليب الأسود للتكبير. على الزر الأخضر مع شرطة للتصغير، أو على الأسهم الخضراء للخرائط المجاورة.


METAR-TAF: